Time;durP1;ratioP1;P1;durP2;ratioP2;P2;SDS_P1;SDS_P2;PMS_P1;PMS_P2;Temp;Humidity;BMP_temperature;BMP_pressure;BME280_temperature;BME280_humidity;BME280_pressure;Samples;Min_cycle;Max_cycle;Signal;HPM_P1;HPM_P2
2021/04/17 00:02:10;;;;;;;3.09;1.70;;;;;;;2.91;70.39;100058.25;1960559;80;21550;-74
2021/04/17 00:05:13;;;;;;;2.30;2.10;;;;;;;2.87;71.02;100061.53;1959618;82;20351;-74
2021/04/17 00:08:14;;;;;;;2.29;1.84;;;;;;;2.89;71.83;100056.47;1959934;82;21027;-74
2021/04/17 00:11:16;;;;;;;2.24;1.63;;;;;;;2.94;72.05;100053.25;1959623;82;20809;-74
2021/04/17 00:14:21;;;;;;;2.08;1.98;;;;;;;2.91;71.71;100050.56;1959766;82;20347;-74
2021/04/17 00:17:43;;;;;;;2.13;1.31;;;;;;;2.87;71.39;100050.38;1963099;80;20358;-74
2021/04/17 00:20:45;;;;;;;2.99;1.63;;;;;;;2.81;71.67;100045.91;1963729;82;21324;-74
2021/04/17 00:23:47;;;;;;;1.64;1.54;;;;;;;2.79;71.81;100049.22;1964510;82;20456;-74
2021/04/17 00:26:48;;;;;;;2.88;1.55;;;;;;;2.85;71.85;100041.75;1964168;82;20336;-74
2021/04/17 00:29:51;;;;;;;1.74;1.38;;;;;;;2.86;72.09;100040.94;1964420;82;20348;-74
2021/04/17 00:32:52;;;;;;;1.90;1.58;;;;;;;2.87;72.00;100041.03;1958736;80;24007;-74
2021/04/17 00:35:54;;;;;;;1.46;1.36;;;;;;;2.92;71.96;100034.34;1954519;83;20350;-74
2021/04/17 00:38:56;;;;;;;4.10;1.41;;;;;;;2.92;72.37;100033.50;1954349;83;20319;-74
2021/04/17 00:41:57;;;;;;;2.81;1.60;;;;;;;2.91;72.51;100032.63;1954362;83;20364;-74
2021/04/17 00:45:00;;;;;;;1.30;1.20;;;;;;;2.87;73.00;100027.28;1954158;83;20360;-74
2021/04/17 00:48:02;;;;;;;1.52;1.21;;;;;;;2.81;73.40;100032.22;1948892;80;24001;-73
2021/04/17 00:51:04;;;;;;;1.94;1.63;;;;;;;2.84;73.30;100022.06;1949597;83;20355;-74
2021/04/17 00:54:07;;;;;;;2.01;1.48;;;;;;;2.77;73.40;100023.53;1949819;83;20343;-73
2021/04/17 00:57:08;;;;;;;1.40;1.30;;;;;;;2.72;73.70;100027.63;1949715;83;20344;-74
2021/04/17 01:00:12;;;;;;;1.26;1.14;;;;;;;2.70;73.48;100021.59;1949258;83;20379;-73
2021/04/17 01:03:29;;;;;;;1.39;1.24;;;;;;;2.70;73.22;100027.56;1959415;82;20329;-74
2021/04/17 01:06:38;;;;;;;2.26;1.30;;;;;;;2.70;73.10;100025.00;1959025;82;20345;-74
2021/04/17 01:09:53;;;;;;;2.99;1.50;;;;;;;2.67;73.53;100019.75;1959727;82;20733;-75
2021/04/17 01:12:56;;;;;;;2.24;1.55;;;;;;;2.64;73.94;100017.06;1958975;82;20187;-74
2021/04/17 01:15:58;;;;;;;2.86;2.09;;;;;;;2.65;74.14;100017.94;1956945;81;22023;-74
2021/04/17 01:19:04;;;;;;;2.24;2.04;;;;;;;2.67;73.98;100017.19;1954428;83;20378;-74
2021/04/17 01:22:08;;;;;;;3.01;1.98;;;;;;;2.67;74.02;100013.75;1954665;83;20322;-73
2021/04/17 01:25:16;;;;;;;2.16;1.84;;;;;;;2.65;73.75;100011.13;1954110;83;21183;-73
2021/04/17 01:28:20;;;;;;;2.91;1.90;;;;;;;2.62;73.31;100012.72;1954772;83;20352;-73
2021/04/17 01:31:27;;;;;;;2.04;1.56;;;;;;;2.54;73.09;100012.44;1955737;80;21185;-74
2021/04/17 01:34:29;;;;;;;2.44;1.51;;;;;;;2.50;73.12;100013.13;1962004;82;20400;-73
2021/04/17 01:37:51;;;;;;;1.98;1.83;;;;;;;2.43;72.94;100016.28;1964195;82;20379;-73
2021/04/17 01:40:56;;;;;;;2.13;1.73;;;;;;;2.29;72.88;100007.19;1960684;82;20313;-73
2021/04/17 01:44:03;;;;;;;1.74;1.64;;;;;;;2.20;72.79;100009.41;1964513;82;20369;-73
2021/04/17 01:47:08;;;;;;;2.29;1.69;;;;;;;2.10;72.76;100001.34;1960988;80;21355;-73
2021/04/17 01:50:13;;;;;;;2.58;1.92;;;;;;;1.98;72.75;100000.03;1960277;82;20381;-73
2021/04/17 01:53:22;;;;;;;2.30;2.10;;;;;;;1.90;73.16;99996.25;1959807;82;20345;-73
2021/04/17 01:56:25;;;;;;;2.38;1.98;;;;;;;1.83;73.07;99987.47;1959232;82;20384;-73
2021/04/17 01:59:28;;;;;;;2.34;2.03;;;;;;;1.75;73.51;99991.41;1960761;82;20349;-73
2021/04/17 02:02:30;;;;;;;1.95;1.83;;;;;;;1.63;73.46;99985.81;1964107;80;21973;-73
2021/04/17 02:05:32;;;;;;;3.24;1.89;;;;;;;1.54;73.66;99986.28;1965566;82;20490;-73
2021/04/17 02:08:35;;;;;;;2.44;2.21;;;;;;;1.46;73.71;99992.78;1966271;82;20336;-74
2021/04/17 02:11:37;;;;;;;3.42;2.20;;;;;;;1.35;73.66;99989.78;1966045;82;20409;-73
2021/04/17 02:14:39;;;;;;;2.01;1.60;;;;;;;1.29;73.65;99986.97;1966228;82;20340;-73
2021/04/17 02:17:50;;;;;;;2.59;2.24;;;;;;;1.21;73.88;99978.09;1965357;80;23506;-73
2021/04/17 02:21:01;;;;;;;3.30;1.50;;;;;;;1.19;73.96;99990.81;1966086;82;20359;-73
2021/04/17 02:24:05;;;;;;;2.05;1.54;;;;;;;1.14;74.16;99986.31;1965812;82;20381;-74
2021/04/17 02:27:08;;;;;;;2.13;1.90;;;;;;;1.11;74.28;99988.75;1966292;82;21125;-73
2021/04/17 02:30:10;;;;;;;5.38;2.21;;;;;;;1.09;74.20;99985.25;1965199;82;20344;-73
2021/04/17 02:33:11;;;;;;;2.30;2.10;;;;;;;1.06;74.38;99982.53;1961104;80;20379;-73
2021/04/17 02:36:13;;;;;;;3.08;1.92;;;;;;;1.06;74.75;99990.22;1959198;82;20334;-73
2021/04/17 02:39:15;;;;;;;2.74;2.01;;;;;;;1.00;74.83;99990.84;1960902;82;20379;-73
2021/04/17 02:42:17;;;;;;;4.59;2.08;;;;;;;0.96;75.00;99985.53;1960659;82;20365;-73
2021/04/17 02:45:19;;;;;;;2.92;2.35;;;;;;;0.90;75.09;99981.91;1960500;82;22096;-73
2021/04/17 02:48:20;;;;;;;2.97;2.06;;;;;;;0.83;74.97;99989.22;1966450;82;20320;-73
2021/04/17 02:51:22;;;;;;;2.58;2.09;;;;;;;0.77;75.08;99987.28;1965950;82;20384;-73
2021/04/17 02:54:24;;;;;;;2.24;1.76;;;;;;;0.77;75.49;99987.28;1964312;82;20846;-73
2021/04/17 02:57:26;;;;;;;3.30;1.88;;;;;;;0.73;75.58;99984.53;1965409;82;20453;-73
2021/04/17 03:00:27;;;;;;;1.46;1.36;;;;;;;0.67;75.65;99990.22;1963693;81;59676;-73
2021/04/17 03:03:29;;;;;;;2.30;1.74;;;;;;;0.61;75.51;99995.09;1960525;82;20359;-74
2021/04/17 03:06:31;;;;;;;1.35;1.26;;;;;;;0.59;75.61;99992.47;1959844;82;20341;-73
2021/04/17 03:09:33;;;;;;;2.08;1.50;;;;;;;0.56;75.48;99987.22;1959627;82;20333;-73
2021/04/17 03:12:35;;;;;;;1.90;1.60;;;;;;;0.53;75.68;99992.16;1959175;82;20367;-74
2021/04/17 03:15:37;;;;;;;1.84;1.59;;;;;;;0.50;75.67;99989.47;1959276;80;20354;-74
2021/04/17 03:18:39;;;;;;;1.55;1.27;;;;;;;0.47;75.54;99986.78;1964005;82;21288;-73
2021/04/17 03:21:42;;;;;;;1.88;1.40;;;;;;;0.38;75.48;99981.28;1964178;82;20404;-74
2021/04/17 03:24:44;;;;;;;3.49;1.50;;;;;;;0.35;75.45;99981.13;1963897;82;20870;-74
2021/04/17 03:27:46;;;;;;;1.76;1.66;;;;;;;0.30;75.63;99983.47;1963808;82;20373;-74
2021/04/17 03:30:47;;;;;;;2.13;1.40;;;;;;;0.25;75.92;99977.28;1961609;80;25165;-74
2021/04/17 03:33:49;;;;;;;1.63;1.20;;;;;;;0.23;76.08;99986.56;1958951;82;20488;-74
2021/04/17 03:36:51;;;;;;;2.34;1.30;;;;;;;0.19;76.28;99981.25;1958597;82;20379;-73
2021/04/17 03:39:54;;;;;;;1.49;1.39;;;;;;;0.12;76.42;99981.75;1959236;82;21315;-74
2021/04/17 03:42:56;;;;;;;3.21;1.65;;;;;;;0.09;76.39;99981.63;1958324;82;20406;-74
2021/04/17 03:45:58;;;;;;;2.29;1.58;;;;;;;0.10;76.45;99981.69;1959857;80;25074;-73
2021/04/17 03:49:00;;;;;;;1.96;1.56;;;;;;;0.08;76.56;99982.41;1963184;82;20928;-73
2021/04/17 03:52:02;;;;;;;2.40;1.42;;;;;;;0.03;76.65;99982.22;1964125;82;20927;-74
2021/04/17 03:55:06;;;;;;;2.67;1.50;;;;;;;0.02;76.82;99982.13;1963066;82;20317;-74
2021/04/17 03:58:08;;;;;;;1.65;1.55;;;;;;;0.00;76.93;99982.06;1964461;82;20373;-74
2021/04/17 04:01:09;;;;;;;2.20;1.39;;;;;;;-0.05;76.97;99979.28;1960838;80;20329;-74
2021/04/17 04:04:12;;;;;;;1.76;1.61;;;;;;;-0.06;77.11;99985.19;1959078;82;20407;-74
2021/04/17 04:07:14;;;;;;;1.44;1.34;;;;;;;-0.06;77.28;99979.22;1959183;82;20359;-74
2021/04/17 04:10:15;;;;;;;1.70;1.52;;;;;;;-0.05;77.27;99996.28;1958789;82;20380;-74
2021/04/17 04:13:17;;;;;;;2.63;1.75;;;;;;;0.01;77.54;99996.59;1959445;82;20361;-74
2021/04/17 04:16:19;;;;;;;2.00;1.80;;;;;;;-0.02;77.35;99989.63;1960002;80;22600;-74
2021/04/17 04:19:21;;;;;;;2.15;1.67;;;;;;;-0.03;77.09;99994.66;1963632;82;20348;-74
2021/04/17 04:22:22;;;;;;;1.63;1.52;;;;;;;-0.05;77.26;99992.03;1963066;82;20348;-74
2021/04/17 04:25:24;;;;;;;3.72;1.39;;;;;;;-0.05;77.27;99986.94;1963647;82;20350;-74
2021/04/17 04:28:26;;;;;;;2.59;1.35;;;;;;;-0.04;77.05;99995.47;1963582;82;20332;-73
2021/04/17 04:31:27;;;;;;;2.05;1.50;;;;;;;-0.08;77.45;99998.69;1960608;80;20736;-73
2021/04/17 04:34:29;;;;;;;1.86;1.34;;;;;;;-0.11;77.54;99991.75;1958548;82;20345;-73
2021/04/17 04:37:31;;;;;;;1.65;1.46;;;;;;;-0.10;77.68;100001.16;1958832;82;20954;-73
2021/04/17 04:40:33;;;;;;;1.77;1.67;;;;;;;-0.12;77.93;99997.66;1955219;82;20367;-73
2021/04/17 04:43:34;;;;;;;2.45;2.04;;;;;;;-0.11;78.01;100001.09;1958904;82;20337;-73
2021/04/17 04:46:36;;;;;;;1.79;1.69;;;;;;;-0.11;78.18;99998.53;1960529;80;22323;-73
2021/04/17 04:49:38;;;;;;;1.66;1.40;;;;;;;-0.05;78.49;100001.38;1963864;82;20447;-73
2021/04/17 04:52:43;;;;;;;1.89;1.49;;;;;;;-0.02;78.67;99997.28;1963511;82;20453;-73
2021/04/17 04:55:45;;;;;;;4.30;1.83;;;;;;;0.01;78.63;100000.81;1963228;82;20344;-73
2021/04/17 04:58:46;;;;;;;1.79;1.67;;;;;;;-0.02;78.65;99996.41;1963399;82;20365;-73
2021/04/17 05:01:48;;;;;;;1.58;1.48;;;;;;;0.04;78.66;100003.50;1959937;80;21473;-73
2021/04/17 05:04:50;;;;;;;1.86;1.60;;;;;;;0.10;78.43;100001.22;1958454;82;20325;-74
2021/04/17 05:07:52;;;;;;;1.94;1.64;;;;;;;0.11;78.35;100000.41;1959330;82;20361;-74
2021/04/17 05:10:53;;;;;;;1.80;1.64;;;;;;;0.11;78.29;100005.53;1958575;82;20353;-73
2021/04/17 05:13:57;;;;;;;2.10;1.90;;;;;;;0.12;78.37;100002.16;1957900;82;20880;-73
2021/04/17 05:16:58;;;;;;;2.24;1.52;;;;;;;0.17;78.38;100004.13;1960846;80;22470;-73
2021/04/17 05:20:00;;;;;;;1.84;1.46;;;;;;;0.18;78.50;99998.25;1963721;82;20863;-73
2021/04/17 05:23:02;;;;;;;2.88;1.73;;;;;;;0.16;78.90;100006.59;1964267;82;20377;-74
2021/04/17 05:26:04;;;;;;;1.81;1.71;;;;;;;0.19;79.11;99997.44;1966897;82;20369;-74
2021/04/17 05:29:06;;;;;;;1.67;1.58;;;;;;;0.20;79.30;100005.97;1964535;82;20352;-74
2021/04/17 05:32:08;;;;;;;2.00;1.79;;;;;;;0.23;79.49;100004.44;1960218;80;22776;-74
2021/04/17 05:35:10;;;;;;;2.86;1.92;;;;;;;0.33;79.61;100007.41;1959422;82;21325;-75
2021/04/17 05:38:12;;;;;;;2.74;1.88;;;;;;;0.34;79.73;100009.13;1959947;82;20402;-75
2021/04/17 05:41:14;;;;;;;2.35;2.15;;;;;;;0.39;80.04;100006.00;1958981;82;20389;-76
2021/04/17 05:44:15;;;;;;;1.71;1.60;;;;;;;0.43;80.11;100010.44;1959409;82;20366;-76
2021/04/17 05:47:17;;;;;;;4.88;2.64;;;;;;;0.53;80.24;100007.50;1961688;80;20309;-75
2021/04/17 05:50:20;;;;;;;2.54;1.89;;;;;;;0.64;79.87;100007.13;1964126;82;20366;-75
2021/04/17 05:53:21;;;;;;;2.90;1.88;;;;;;;0.67;79.70;100012.34;1964181;82;21433;-75
2021/04/17 05:56:23;;;;;;;3.03;1.90;;;;;;;0.75;79.92;100011.91;1964333;82;20378;-75
2021/04/17 05:59:24;;;;;;;1.70;1.48;;;;;;;0.88;79.82;100008.19;1964729;82;20374;-75
2021/04/17 06:02:26;;;;;;;2.13;1.84;;;;;;;0.94;79.46;100012.72;1959560;80;26239;-76
2021/04/17 06:05:28;;;;;;;2.05;1.77;;;;;;;1.01;79.48;100010.47;1960141;82;20355;-75
2021/04/17 06:08:30;;;;;;;3.00;2.30;;;;;;;1.11;79.34;100004.09;1959157;82;20983;-75
2021/04/17 06:11:32;;;;;;;2.14;1.84;;;;;;;1.20;79.38;100010.47;1959323;82;20378;-76
2021/04/17 06:14:34;;;;;;;3.67;2.17;;;;;;;1.29;79.28;100002.31;1959386;82;20345;-75
2021/04/17 06:17:35;;;;;;;2.20;1.61;;;;;;;1.40;78.99;99998.50;1962747;80;20324;-75
2021/04/17 06:20:38;;;;;;;1.85;1.75;;;;;;;1.50;78.68;99997.22;1963850;82;21049;-75
2021/04/17 06:23:39;;;;;;;5.24;2.10;;;;;;;1.53;78.41;99999.91;1962015;82;20358;-74
2021/04/17 06:26:42;;;;;;;2.74;1.81;;;;;;;1.59;78.23;100001.81;1962146;82;20324;-75
2021/04/17 06:29:44;;;;;;;3.70;1.70;;;;;;;1.65;77.98;100002.09;1962057;82;20340;-74
2021/04/17 06:32:45;;;;;;;3.03;1.96;;;;;;;1.72;78.05;100004.06;1961262;82;20320;-73
2021/04/17 06:35:47;;;;;;;2.26;1.96;;;;;;;1.83;78.06;100004.53;1959776;82;20345;-83
2021/04/17 06:38:49;;;;;;;4.30;1.81;;;;;;;1.93;78.19;99996.38;1964205;82;20441;-76
2021/04/17 06:42:01;;;;;;;2.19;2.04;;;;;;;2.13;77.87;100005.72;1969234;82;20359;-79
2021/04/17 06:45:08;;;;;;;1.79;1.45;;;;;;;2.32;77.47;100003.03;1971794;82;20317;-83
2021/04/17 06:48:10;;;;;;;2.64;1.67;;;;;;;2.51;77.33;99999.47;1972536;82;20333;-74
2021/04/17 06:51:16;;;;;;;4.06;2.04;;;;;;;2.72;77.24;99995.19;1965210;82;20413;-81
2021/04/17 06:54:20;;;;;;;3.20;2.05;;;;;;;2.95;76.54;99990.00;1971603;82;20355;-82
2021/04/17 06:57:22;;;;;;;2.28;1.99;;;;;;;3.22;75.69;99983.25;1970969;82;20394;-81
2021/04/17 07:00:25;;;;;;;2.54;2.17;;;;;;;3.57;74.45;99992.13;1970831;82;20333;-83
2021/04/17 07:03:27;;;;;;;4.31;2.29;;;;;;;3.80;73.65;99994.59;1993094;72;20338;-84
2021/04/17 07:06:41;;;;;;;5.28;2.45;;;;;;;3.97;73.40;99990.88;1963791;83;20360;-81
2021/04/17 07:10:00;;;;;;;5.24;1.99;;;;;;;4.12;72.78;99988.75;1958984;83;20424;-78
2021/04/17 07:13:16;;;;;;;;;;;;;;;4.27;72.66;99992.63;1958134;82;20338;-73
2021/04/17 07:16:18;;;;;;;3.29;2.38;;;;;;;4.45;72.12;99999.19;1951302;83;20109;-73
2021/04/17 07:19:21;;;;;;;3.80;2.45;;;;;;;4.59;71.49;99988.44;1952016;83;20429;-72
2021/04/17 07:22:30;;;;;;;3.03;2.44;;;;;;;4.70;70.75;99992.22;1952402;83;20335;-73
2021/04/17 07:25:34;;;;;;;2.97;2.29;;;;;;;4.86;70.74;99991.81;1951947;83;20390;-74
2021/04/17 07:28:37;;;;;;;2.99;2.56;;;;;;;5.04;70.32;99983.72;1951830;83;20380;-73
2021/04/17 07:31:55;;;;;;;4.74;2.84;;;;;;;5.27;70.12;99992.06;1951578;83;20450;-74
2021/04/17 07:35:23;;;;;;;3.10;2.40;;;;;;;5.45;69.50;99990.84;1951851;82;20326;-73
2021/04/17 07:38:36;;;;;;;3.00;2.38;;;;;;;5.93;69.35;99984.31;1951266;83;20362;-73
2021/04/17 07:41:38;;;;;;;3.63;2.61;;;;;;;6.32;68.11;99989.50;1952057;83;20342;-74
2021/04/17 07:44:46;;;;;;;4.16;2.65;;;;;;;6.65;66.56;99972.19;1952390;82;20339;-74
2021/04/17 07:47:50;;;;;;;3.84;2.10;;;;;;;7.12;65.52;99979.09;1952208;83;20346;-75
2021/04/17 07:50:54;;;;;;;4.51;2.69;;;;;;;7.63;64.37;99979.16;1951427;83;20820;-75
2021/04/17 07:54:12;;;;;;;4.65;2.22;;;;;;;8.03;61.19;99978.06;1951120;82;20347;-75
2021/04/17 07:57:14;;;;;;;2.70;2.10;;;;;;;8.22;60.54;99976.63;1952759;83;20330;-75
2021/04/17 08:00:19;;;;;;;4.30;2.49;;;;;;;8.74;59.29;99978.22;1952521;83;20200;-75
2021/04/17 08:03:23;;;;;;;3.13;2.26;;;;;;;9.22;57.81;99976.19;1951976;83;20292;-75
2021/04/17 08:06:29;;;;;;;4.64;2.55;;;;;;;9.44;56.71;99965.16;1947870;83;20769;-75
2021/04/17 08:09:32;;;;;;;3.51;2.26;;;;;;;9.70;55.66;99968.00;1947704;83;20303;-76
2021/04/17 08:12:35;;;;;;;4.54;2.40;;;;;;;9.86;53.79;99963.78;1948465;83;20200;-75
2021/04/17 08:15:37;;;;;;;3.04;2.70;;;;;;;10.06;51.88;99957.03;1947687;83;20214;-75
2021/04/17 08:18:39;;;;;;;5.51;2.47;;;;;;;10.25;52.09;99950.28;1949783;83;20192;-76
2021/04/17 08:21:41;;;;;;;2.30;1.88;;;;;;;10.49;51.25;99957.31;1949361;83;20349;-75
2021/04/17 08:24:46;;;;;;;4.25;2.19;;;;;;;10.76;50.83;99952.22;1950217;83;20617;-76
2021/04/17 08:27:50;;;;;;;5.07;2.59;;;;;;;11.01;48.94;99947.13;1950004;83;20204;-76
2021/04/17 08:31:25;;;;;;;2.45;2.06;;;;;;;11.39;48.41;99948.06;1949538;83;20759;-76
2021/04/17 08:34:27;;;;;;;3.96;2.19;;;;;;;11.91;48.22;99939.44;1950022;83;20218;-76
2021/04/17 08:37:30;;;;;;;2.60;2.13;;;;;;;12.42;46.36;99932.41;1949287;83;20316;-77
2021/04/17 08:40:32;;;;;;;5.63;2.46;;;;;;;12.76;44.46;99936.59;1949721;83;20669;-76
2021/04/17 08:43:34;;;;;;;4.01;3.20;;;;;;;12.95;43.60;99924.34;1949945;83;20224;-77
2021/04/17 08:46:42;;;;;;;2.35;2.13;;;;;;;13.23;43.12;99925.94;1949159;83;20200;-76
2021/04/17 08:49:44;;;;;;;4.09;2.69;;;;;;;13.34;43.04;99923.25;1950096;83;20296;-77
2021/04/17 08:52:46;;;;;;;4.00;1.94;;;;;;;13.59;41.99;99921.31;1949660;83;21225;-78
2021/04/17 08:56:05;;;;;;;3.40;1.76;;;;;;;13.80;40.34;99921.13;1950095;83;20192;-76
2021/04/17 08:59:08;;;;;;;2.56;1.71;;;;;;;14.00;37.97;99920.06;1949865;83;20315;-76
2021/04/17 09:02:12;;;;;;;2.17;1.79;;;;;;;13.90;36.36;99919.31;1949615;83;20310;-77
2021/04/17 09:05:16;;;;;;;2.99;2.20;;;;;;;13.98;37.46;99914.88;1949422;83;20245;-77
2021/04/17 09:08:18;;;;;;;2.13;1.74;;;;;;;14.08;35.19;99913.06;1948963;83;20188;-76
2021/04/17 09:12:04;;;;;;;2.71;1.83;;;;;;;14.15;35.93;99901.66;1949833;83;20184;-76
2021/04/17 09:15:06;;;;;;;1.61;1.38;;;;;;;14.22;35.08;99903.34;1950472;83;20200;-77
2021/04/17 09:18:34;;;;;;;1.70;1.42;;;;;;;14.66;35.52;99900.22;1949719;83;20210;-76
2021/04/17 09:21:39;;;;;;;2.50;1.48;;;;;;;15.04;35.32;99899.69;1950521;83;20688;-76
2021/04/17 09:24:42;;;;;;;2.72;1.70;;;;;;;15.09;33.44;99897.03;1951531;83;20221;-76
2021/04/17 09:27:49;;;;;;;1.60;1.41;;;;;;;15.26;35.23;99897.63;1951675;83;20188;-76
2021/04/17 09:30:51;;;;;;;1.61;1.42;;;;;;;15.62;33.67;99895.34;1950983;83;20161;-77
2021/04/17 09:33:59;;;;;;;1.69;1.59;;;;;;;15.50;32.65;99895.50;1952096;83;20196;-76
2021/04/17 09:37:09;;;;;;;2.03;1.24;;;;;;;15.59;33.45;99887.53;1949676;83;20680;-76
2021/04/17 09:40:12;;;;;;;3.24;1.39;;;;;;;15.69;33.08;99886.50;1949910;83;20188;-76
2021/04/17 09:43:25;;;;;;;1.66;1.33;;;;;;;15.01;32.73;99893.63;1950308;83;20214;-75
2021/04/17 09:46:28;;;;;;;2.65;1.20;;;;;;;14.76;34.03;99891.38;1950043;83;20258;-76
2021/04/17 09:49:41;;;;;;;1.75;1.30;;;;;;;14.26;33.48;99881.50;1950048;83;20180;-74
2021/04/17 09:52:42;;;;;;;1.79;1.51;;;;;;;14.05;34.16;99880.00;1950193;83;20203;-76
2021/04/17 09:55:59;;;;;;;2.47;1.20;;;;;;;13.71;34.59;99882.09;1950434;83;20208;-76
2021/04/17 09:59:13;;;;;;;1.86;1.36;;;;;;;13.90;35.49;99881.03;1948155;83;20210;-77
2021/04/17 10:02:15;;;;;;;1.01;0.91;;;;;;;14.26;34.21;99864.97;1947806;83;20616;-76
2021/04/17 10:05:32;;;;;;;2.19;1.00;;;;;;;14.48;34.66;99872.56;1947908;83;20273;-76
2021/04/17 10:08:35;;;;;;;2.31;1.24;;;;;;;14.51;31.36;99862.06;1948620;83;20321;-75
2021/04/17 10:11:40;;;;;;;2.06;1.14;;;;;;;14.98;32.78;99855.31;1948243;83;20689;-72
2021/04/17 10:14:42;;;;;;;2.06;1.10;;;;;;;15.54;32.21;99847.44;1948622;83;20181;-76
2021/04/17 10:17:44;;;;;;;1.42;0.90;;;;;;;15.83;31.37;99855.69;1948678;83;20704;-76
2021/04/17 10:20:46;;;;;;;1.92;0.91;;;;;;;15.97;30.29;99863.28;1948463;83;20210;-76
2021/04/17 10:24:17;;;;;;;1.06;0.90;;;;;;;15.84;28.28;99846.09;1948991;83;20204;-75
2021/04/17 10:27:24;;;;;;;2.54;0.90;;;;;;;16.04;30.46;99840.47;1948742;83;20692;-77
2021/04/17 10:30:30;;;;;;;2.01;0.90;;;;;;;16.38;30.40;99843.28;1950090;83;20185;-77
2021/04/17 10:33:32;;;;;;;1.45;0.80;;;;;;;16.54;28.51;99834.19;1950888;83;21229;-77
2021/04/17 10:36:34;;;;;;;1.39;0.90;;;;;;;16.52;27.56;99826.38;1951307;83;20204;-77
2021/04/17 10:39:37;;;;;;;0.70;0.70;;;;;;;16.42;28.02;99822.19;1950507;83;20180;-76
2021/04/17 10:42:56;;;;;;;2.65;0.79;;;;;;;16.71;27.62;99824.22;1950203;83;20218;-76
2021/04/17 10:45:59;;;;;;;;;;;;;;;16.84;28.04;99814.31;1949287;83;20209;-75
2021/04/17 10:49:01;;;;;;;2.22;1.00;;;;;;;17.03;27.94;99814.75;1948787;83;21003;-75
2021/04/17 10:52:07;;;;;;;2.47;0.90;;;;;;;16.90;27.12;99812.44;1948489;83;20224;-75
2021/04/17 10:55:09;;;;;;;5.53;0.94;;;;;;;16.97;27.23;99809.66;1948175;83;20734;-75
2021/04/17 10:58:34;;;;;;;2.51;0.70;;;;;;;17.01;27.03;99813.91;1948447;83;20257;-75
2021/04/17 11:01:38;;;;;;;2.56;1.00;;;;;;;17.22;27.66;99805.50;1948051;83;20181;-75
2021/04/17 11:04:46;;;;;;;4.09;0.88;;;;;;;17.38;26.33;99790.25;1948636;83;20854;-76
2021/04/17 11:07:56;;;;;;;0.91;0.66;;;;;;;17.37;26.75;99786.75;1950001;83;20199;-76
2021/04/17 11:11:07;;;;;;;1.44;0.80;;;;;;;17.35;27.20;99780.69;1950544;83;20661;-76
2021/04/17 11:14:09;;;;;;;1.04;0.70;;;;;;;17.31;27.11;99778.19;1950520;83;20210;-76
2021/04/17 11:17:11;;;;;;;3.94;0.86;;;;;;;17.43;26.43;99764.75;1950074;83;20202;-76
2021/04/17 11:20:22;;;;;;;1.16;0.80;;;;;;;17.20;26.96;99768.81;1950926;83;20753;-75
2021/04/17 11:23:47;;;;;;;2.95;0.80;;;;;;;17.45;25.85;99770.81;1949990;83;20837;-76
2021/04/17 11:26:49;;;;;;;0.91;0.81;;;;;;;17.03;25.21;99775.38;1954002;83;20176;-76
2021/04/17 11:29:51;;;;;;;3.21;1.00;;;;;;;17.22;26.27;99766.16;1949955;83;20231;-75
2021/04/17 11:32:53;;;;;;;1.01;0.73;;;;;;;17.49;26.78;99757.56;1950136;83;20221;-76
2021/04/17 11:35:55;;;;;;;1.02;0.86;;;;;;;17.73;26.63;99761.31;1950888;83;20584;-76
2021/04/17 11:38:57;;;;;;;1.94;0.68;;;;;;;17.15;25.45;99760.22;1950677;83;20180;-75
2021/04/17 11:41:58;;;;;;;0.93;0.60;;;;;;;17.26;25.51;99756.47;1950488;83;20226;-76
2021/04/17 11:45:00;;;;;;;0.99;0.66;;;;;;;17.03;25.32;99760.50;1949509;83;20204;-75
2021/04/17 11:48:06;;;;;;;1.94;0.64;;;;;;;17.24;25.38;99764.38;1950355;83;20177;-75
2021/04/17 11:51:08;;;;;;;1.76;0.70;;;;;;;17.42;25.38;99752.53;1949149;83;21349;-76
2021/04/17 11:54:10;;;;;;;1.86;0.60;;;;;;;17.63;25.75;99751.09;1949844;83;20246;-76
2021/04/17 11:57:12;;;;;;;2.13;0.91;;;;;;;17.38;24.43;99751.72;1949739;83;20209;-77
2021/04/17 12:00:14;;;;;;;2.85;0.70;;;;;;;17.61;24.39;99751.13;1949066;83;20218;-76
2021/04/17 12:03:21;;;;;;;0.71;0.71;;;;;;;17.61;25.53;99745.03;1949178;83;21281;-77
2021/04/17 12:06:28;;;;;;;2.54;0.69;;;;;;;17.65;24.99;99734.38;1948857;83;20314;-76
2021/04/17 12:09:33;;;;;;;1.91;0.89;;;;;;;17.94;25.90;99728.31;1948945;83;20213;-76
2021/04/17 12:12:35;;;;;;;2.69;0.80;;;;;;;18.14;25.50;99733.03;1948768;83;20206;-76
2021/04/17 12:15:38;;;;;;;0.91;0.76;;;;;;;18.21;24.78;99728.44;1948615;83;21296;-76
2021/04/17 12:18:40;;;;;;;2.56;0.70;;;;;;;18.36;25.88;99741.13;1949251;83;20286;-75
2021/04/17 12:21:43;;;;;;;2.96;0.80;;;;;;;18.33;26.03;99738.59;1950061;83;20210;-76
2021/04/17 12:24:44;;;;;;;1.70;0.81;;;;;;;18.54;25.67;99737.91;1951522;83;20213;-76
2021/04/17 12:27:47;;;;;;;3.03;0.98;;;;;;;18.07;24.79;99729.69;1950845;83;20176;-76
2021/04/17 12:30:48;;;;;;;3.44;0.61;;;;;;;18.37;26.15;99727.91;1952093;83;20188;-76
2021/04/17 12:33:50;;;;;;;2.24;0.81;;;;;;;17.95;24.18;99719.53;1951660;83;20726;-76
2021/04/17 12:36:52;;;;;;;1.83;0.80;;;;;;;17.87;24.54;99712.78;1951771;83;20564;-76
2021/04/17 12:39:53;;;;;;;2.33;0.70;;;;;;;17.50;24.37;99719.03;1952079;83;20230;-76
2021/04/17 12:42:55;;;;;;;1.25;0.70;;;;;;;17.33;24.63;99718.63;1952281;83;21104;-76
2021/04/17 12:45:57;;;;;;;0.90;0.73;;;;;;;17.58;26.19;99722.31;1951361;83;20234;-74
2021/04/17 12:48:59;;;;;;;2.64;0.89;;;;;;;18.06;26.08;99709.56;1951527;83;20366;-75
2021/04/17 12:52:02;;;;;;;1.44;0.80;;;;;;;18.05;26.05;99722.75;1950344;83;20294;-75
2021/04/17 12:55:04;;;;;;;1.59;0.88;;;;;;;18.25;25.98;99709.03;1951773;83;20211;-75
2021/04/17 12:58:06;;;;;;;1.11;0.64;;;;;;;18.22;25.88;99707.34;1948795;83;20210;-75
2021/04/17 13:01:08;;;;;;;1.14;0.90;;;;;;;18.22;26.21;99714.38;1948873;83;20607;-75
2021/04/17 13:04:10;;;;;;;2.29;0.75;;;;;;;18.40;24.98;99712.03;1949201;83;20505;-76
2021/04/17 13:07:11;;;;;;;0.70;0.70;;;;;;;18.09;25.46;99712.09;1948861;83;20180;-78
2021/04/17 13:10:14;;;;;;;1.34;0.70;;;;;;;17.82;25.81;99699.81;1949181;83;20235;-78
2021/04/17 13:13:15;;;;;;;2.96;0.80;;;;;;;18.00;25.95;99701.03;1949403;83;20200;-78
2021/04/17 13:16:17;;;;;;;1.00;0.80;;;;;;;18.20;24.49;99689.91;1949045;83;20200;-76
2021/04/17 13:19:20;;;;;;;1.42;0.84;;;;;;;17.85;24.35;99685.72;1948562;83;20365;-76
2021/04/17 13:22:22;;;;;;;3.25;0.80;;;;;;;17.86;24.44;99685.66;1950436;83;20177;-75
2021/04/17 13:25:24;;;;;;;2.28;0.90;;;;;;;17.46;25.09;99689.41;1950492;83;20229;-75
2021/04/17 13:28:26;;;;;;;1.02;0.69;;;;;;;17.35;24.74;99685.34;1950167;83;20234;-76
2021/04/17 13:31:27;;;;;;;1.46;0.80;;;;;;;17.30;25.92;99681.97;1950880;83;20217;-75
2021/04/17 13:34:30;;;;;;;0.70;0.70;;;;;;;17.52;25.36;99686.59;1950562;83;20177;-77
2021/04/17 13:37:31;;;;;;;0.74;0.69;;;;;;;17.04;23.68;99685.28;1952868;83;20206;-77
2021/04/17 13:40:33;;;;;;;1.17;0.93;;;;;;;17.07;25.33;99683.47;1950567;83;20169;-74
2021/04/17 13:43:35;;;;;;;1.69;1.09;;;;;;;17.02;25.20;99681.84;1951490;83;20904;-75
2021/04/17 13:46:38;;;;;;;1.29;0.70;;;;;;;17.00;24.85;99667.91;1950891;83;20306;-74
2021/04/17 13:49:40;;;;;;;1.90;0.89;;;;;;;17.00;25.21;99667.91;1950799;83;20214;-74
2021/04/17 13:52:42;;;;;;;1.88;0.90;;;;;;;16.92;25.21;99662.88;1950797;83;20200;-74
2021/04/17 13:55:44;;;;;;;2.09;0.80;;;;;;;17.04;25.56;99661.66;1947654;83;20200;-77
2021/04/17 13:58:46;;;;;;;1.06;0.70;;;;;;;16.91;24.78;99662.00;1952194;83;20206;-75
2021/04/17 14:01:47;;;;;;;3.91;0.90;;;;;;;16.82;25.73;99661.38;1951548;83;20184;-75
2021/04/17 14:04:49;;;;;;;1.27;0.80;;;;;;;16.61;25.11;99650.50;1950727;83;20197;-74
2021/04/17 14:07:51;;;;;;;0.91;0.60;;;;;;;16.84;25.45;99657.81;1950930;83;20197;-75
2021/04/17 14:10:53;;;;;;;0.74;0.70;;;;;;;16.78;24.10;99657.97;1949298;83;20180;-75
2021/04/17 14:13:54;;;;;;;1.81;0.80;;;;;;;16.77;23.04;99652.75;1950438;83;20224;-76
2021/04/17 14:16:56;;;;;;;1.24;0.90;;;;;;;16.71;24.25;99643.31;1949802;83;20188;-75
2021/04/17 14:19:58;;;;;;;1.09;0.76;;;;;;;17.00;24.70;99653.03;1950085;83;20218;-74
2021/04/17 14:23:00;;;;;;;1.75;0.90;;;;;;;17.09;23.85;99633.56;1949092;83;20560;-75
2021/04/17 14:26:02;;;;;;;1.98;0.70;;;;;;;17.35;22.99;99645.97;1948186;83;20176;-75
2021/04/17 14:29:04;;;;;;;2.10;1.04;;;;;;;17.38;23.48;99651.97;1949613;83;20206;-75
2021/04/17 14:32:07;;;;;;;1.29;0.70;;;;;;;16.98;22.38;99641.72;1948194;83;20677;-74